Alegre, Brazil
Current Conditions -  °F | °C
As of 8:00 AM on Thursday 23 Oct 2014 (Local Time) from SBCP Reporting Station
Broken Clouds Broken Clouds  
Wind Chill: 68°   Ceiling: 9000
Heat Index: 68°   Visibility: 6mi
Dew Point: 63°   Wind: 0mph
Humidity: 83%   Direction: NA
Pressure: 30.18"   Gusts: NA
Location:  20.76°S, 41.53°W
Report Text: SBCP 231000Z 00000KT 9999 FEW020 BKN090 20/17 Q1022
Loading
Personal Weather Stations






























Interactive Weather Map
Tropical Storm Tracking
New forecast layout! Learn more

10-Day Weather Forecast

Advertisements
Track Severe Weather on mobile